Terminal Aerodrome Forecast
Issued by NWS

Current Version | Previous Version | Graphics & Text | Print | Product List | Glossary On
Versions: 1 2 3 4 5 6 7 8 9 10 11 12 13 14 15 16 17 18 19 20 21 22 23
894
FTUS41 KPBZ 201510 AAA
TAFMGW
TAF AMD
KMGW 201510Z 2015/2112 16006KT P6SM -RA OVC025
     FM201900 20007KT P6SM OVC015=

USA.gov is the U.S. government's official web portal to all federal, state and local government web resources and services.